Englewood Cliffs, New Jersey
Current Conditions -  °F | °C
As of 3:51 PM on Tuesday 25 Nov 2014 (Local Time) from KTEB Reporting Station
Clear Clear  
Wind Chill: 54°   Ceiling: Unl
Heat Index: 54°   Visibility: 10mi
Dew Point: 28°   Wind: 8mph
Humidity: 37%   Direction: 230°SW
Pressure: 30"   Gusts: NA
Location:  40.88°N, 73.95°W
Report Text: KTEB 252051Z 23007KT 10SM CLR 12/M02 A3000 RMK AO2 SLP158 T01221022 53005
Loading
Personal Weather Stations






























Interactive Weather Map New forecast layout! Learn more

10-Day Weather Forecast

Advertisements
Track Severe Weather on mobile